Chattanooga, TN (37401)

2:34 AM EDT on August 30, 2016 (GMT -0400)
Stringer's Ridge | | Change Station

Elev 823 ft 35.08 °N, 85.32 °W | Updated 28 seconds ago

Clear
Clear
71.8 °F
Feels Like 74 °F
N
0.0
Wind Variable Wind from NW
Gusts 0.0 mph

Today
High -- | Low -- °F
--% Chance of Precip.
Yesterday
High -- | Low -- °F
Precip. -- in
Pressure 30.07 in
Visibility 10.0 miles
Clouds Clear
Heat Index 74 °F
Dew Point 63 °F
Humidity 74%
Rainfall 0.00 in
Snow Depth Not available.
7:12 AM 8:09 PM
Waning Crescent, 5% visible
METAR KCHA 300553Z AUTO 00000KT 10SM CLR 23/20 A3010 RMK AO2 SLP183 T02280200 10317 20222 51001
Pressure 30.07 in
Visibility 10.0 miles
Clouds Clear
Heat Index 74 °F
Dew Point 63 °F
Humidity 74%
Rainfall 0.00 in
Snow Depth Not available.
7:12 AM 8:09 PM
Waning Crescent, 5% visible
METAR KCHA 300553Z AUTO 00000KT 10SM CLR 23/20 A3010 RMK AO2 SLP183 T02280200 10317 20222 51001

10-Day Weather Forecast

Almanac

Astronomy

Aug. 30, 2016 Rise Set
Actual Time
Civil Twilight
Nautical Twilight
Astronomical Twilight
Moon
Length of Visible Light
Length of Day
Tomorrow will be .
, % of the Moon is Illuminated

Today's Extremes

State Highs State Lows

Community

WunderPhotos

Upload Photos

1,935,795 photos uploaded!

WunderBlog® & News

Nearby

Air Quality

  Air Quality AQ Index Pollutant
Not available.

Snow Depth

Station Depth Elevation

Earthquake Activity

City Distance Mag. Time & Date
Minimum magnitude displayed is 2.5.

Coastal Water Temperatures

Place Temperature

Stations

Nearby Weather Stations

Station Location Temp. Windchill Dew Point Humidity Wind Precip. Elev Updated Type
                   

Watches & Warnings

There are currently no watches in effect.